Flight Track Log - Related Links

Times and Time Zones

All times are in EDT time to prevent confusion due to time zone crossing. See the N6045S flight status page for this flight to view local times or setup timezone preferences in your user account.

Time Position Orientation Groundspeed Altitude Reporting Facility
EDT Latitude Longitude Course Direction KTS MPH feet Rate Location/Type
Thu 03:30:32 PM 40.2667 -74.8333 217° Southwest 101 116 600  Level Philadelphia TRACON
Thu 03:31:50 PM 40.2333 -74.8667 217° Southwest 151 174 2,300 1,036 Climbing Philadelphia TRACON
Thu 03:32:51 PM 40.2069 -74.8094 121° Southeast 200 230 3,000 885 Climbing New York Center
Thu 03:33:52 PM 40.2117 -74.7364 85° East 230 265 4,100 992 Climbing New York Center
Thu 03:34:52 PM 40.2078 -74.6656 94° East 220 253 5,000 492 Climbing New York Center
Thu 03:35:54 PM 40.2042 -74.5811 93° East 220 253 5,100 -50 Climbing New York Center
Thu 03:36:52 PM 40.2050 -74.4886 89° East 232 267 4,900 -102 Descending New York Center
Thu 03:37:52 PM 40.1825 -74.4142 112° Southeast 238 274 4,900 248 Level New York Center
Thu 03:38:53 PM 40.1533 -74.3394 117° Southeast 238 274 5,400 504 Climbing New York Center
Thu 03:39:51 PM 40.1267 -74.2564 113° Southeast 227 261 5,900 908 Climbing New York Center
Thu 03:40:52 PM 40.1061 -74.1794 109° East 227 261 7,200 1,180 Climbing New York Center
Thu 03:41:53 PM 40.0808 -74.1103 116° Southeast 217 250 8,300 1,008 Climbing New York Center
Thu 03:42:51 PM 40.0619 -74.0472 111° Southeast 210 242 9,200 864 Climbing New York Center
Thu 03:43:51 PM 40.0389 -73.9783 114° Southeast 210 242 10,000 397 Climbing New York Center
Thu 03:44:52 PM 40.0139 -73.8931 111° Southeast 219 252 10,000  Level New York Center
Thu 03:45:52 PM 39.9869 -73.8106 113° Southeast 236 272 10,000  Level New York Center
Thu 03:46:53 PM 39.9642 -73.7231 109° East 246 283 10,000  Level New York Center
Thu 03:47:51 PM 39.9561 -73.6306 96° East 246 283 10,000  Level New York Center
Thu 03:48:51 PM 39.9872 -73.5506 63° Northeast 241 277 10,000  Level New York Center
Thu 03:49:52 PM 40.0450 -73.4878 40° Northeast 238 274 10,000  Level New York Center
Thu 03:50:52 PM 40.0986 -73.4194 44° Northeast 260 299 10,000  Level New York Center
Thu 03:53:20 PM 40.2197 -73.2581 45° Northeast 259 298 10,000  Level Boston Center
Thu 03:54:20 PM 40.2703 -73.1906 46° Northeast 264 304 10,000 -350 Level Boston Center
Thu 03:55:20 PM 40.3206 -73.1231 46° Northeast 264 304 9,300 -500 Descending Boston Center
Thu 03:56:20 PM 40.3753 -73.0558 43° Northeast 264 304 9,000 -150 Descending Boston Center
Thu 03:57:20 PM 40.4236 -72.9853 48° Northeast 259 298 9,000 -424 Level Boston Center
Thu 03:59:38 PM 40.5500 -72.8167 45° Northeast 263 303 7,600 -594 Descending New York TRACON
Thu 04:00:32 PM 40.6000 -72.7667 37° Northeast 258 297 7,100 -250 Descending New York TRACON
Thu 04:01:38 PM 40.6500 -72.6833 52° Northeast 262 302 7,100 -200 Level New York TRACON
Thu 04:02:32 PM 40.7000 -72.6167 45° Northeast 268 308 6,700 -684 Descending New York TRACON
Thu 04:03:32 PM 40.7500 -72.5500 45° Northeast 262 302 5,800 -1,100 Descending New York TRACON
Thu 04:04:32 PM 40.8000 -72.4833 45° Northeast 260 299 4,500 -1,250 Descending New York TRACON
Thu 04:05:32 PM 40.8500 -72.4167 45° Northeast 261 300 3,300 -1,000 Descending New York TRACON
Thu 04:06:38 PM 40.9000 -72.3500 45° Northeast 224 258 2,400 -857 Descending New York TRACON
Thu 04:07:38 PM 40.9333 -72.2833 56° Northeast 201 231 1,500 -550 Descending New York TRACON
Thu 04:08:38 PM 40.9333 -72.2167 90° East 158 182 1,300 -200 Descending New York TRACON

Login

Don't have an account? Register now (free) for customized features, flight alerts, and more!